createdAt,value
2023-02-11T00:02:29.638Z,58.64
2023-02-11T00:05:32.277Z,58.79
2023-02-11T00:08:36.241Z,58.87
2023-02-11T00:11:38.816Z,58.66
2023-02-11T00:14:41.345Z,59.01
2023-02-11T00:17:43.860Z,58.82
2023-02-11T00:20:46.366Z,58.99
2023-02-11T00:23:50.240Z,59.09
2023-02-11T00:26:52.798Z,58.73
2023-02-11T00:29:55.502Z,58.72
2023-02-11T00:32:58.038Z,58.66
2023-02-11T00:36:04.198Z,58.98
2023-02-11T00:39:08.105Z,59.09
2023-02-11T00:42:11.113Z,58.84
2023-02-11T00:45:13.682Z,58.95
2023-02-11T00:48:16.272Z,58.98
2023-02-11T00:51:18.791Z,58.76
2023-02-11T00:54:22.667Z,59.23
2023-02-11T00:57:25.295Z,59.04
2023-02-11T01:00:27.950Z,58.79
2023-02-11T01:03:30.628Z,58.73
2023-02-11T01:06:33.149Z,58.79
2023-02-11T01:09:38.833Z,58.97
2023-02-11T01:12:41.363Z,58.71
2023-02-11T01:15:43.964Z,59.12
2023-02-11T01:18:46.518Z,59.44
2023-02-11T01:21:49.101Z,58.89
2023-02-11T01:24:53.038Z,59.27
2023-02-11T01:27:55.668Z,58.97
2023-02-11T01:30:58.302Z,58.97
2023-02-11T01:34:00.844Z,59.03
2023-02-11T01:37:03.373Z,58.90
2023-02-11T01:40:09.203Z,58.98
2023-02-11T01:43:12.033Z,59.07
2023-02-11T01:46:27.313Z,59.38
2023-02-11T01:49:32.028Z,59.17
2023-02-11T01:52:35.879Z,59.48
2023-02-11T01:55:57.217Z,59.35
2023-02-11T01:59:02.465Z,59.47
2023-02-11T02:02:07.633Z,59.38
2023-02-11T02:05:16.017Z,59.23
2023-02-11T02:08:20.204Z,59.34
2023-02-11T02:11:24.142Z,59.41
2023-02-11T02:14:27.258Z,59.53
2023-02-11T02:17:39.063Z,59.29
2023-02-11T02:21:14.928Z,59.66
2023-02-11T02:24:32.795Z,59.53
2023-02-11T02:27:41.118Z,59.25
2023-02-11T02:30:56.315Z,59.48
2023-02-11T02:34:01.850Z,59.36
2023-02-11T02:37:07.491Z,59.59
2023-02-11T02:40:11.931Z,59.26
2023-02-11T02:43:14.577Z,59.27
2023-02-11T02:46:18.671Z,59.66
2023-02-11T02:49:22.621Z,59.71
2023-02-11T02:52:31.470Z,59.60
2023-02-11T02:55:40.687Z,59.67
2023-02-11T02:59:04.748Z,59.76
2023-02-11T03:02:10.886Z,59.72
2023-02-11T03:05:17.118Z,59.42
2023-02-11T03:08:21.614Z,59.54
2023-02-11T03:11:24.183Z,59.57
2023-02-11T03:14:26.882Z,59.66
2023-02-11T03:17:29.395Z,59.86
2023-02-11T03:20:33.970Z,59.57
2023-02-11T03:23:38.401Z,59.79
2023-02-11T03:26:42.077Z,59.65
2023-02-11T03:29:45.402Z,59.63
2023-02-11T03:32:50.357Z,59.81
2023-02-11T03:35:55.245Z,59.62
2023-02-11T03:38:58.135Z,59.78
2023-02-11T03:42:00.769Z,59.67
2023-02-11T03:45:05.856Z,59.61
2023-02-11T03:48:12.195Z,59.80
2023-02-11T03:51:16.139Z,59.89
2023-02-11T03:54:21.271Z,59.84
2023-02-11T03:57:23.820Z,59.60
2023-02-11T04:00:31.132Z,60.05
2023-02-11T04:03:33.844Z,59.91
2023-02-11T04:06:37.829Z,59.61
2023-02-11T04:09:40.368Z,59.99
2023-02-11T04:12:42.890Z,60.08
2023-02-11T04:15:47.269Z,59.99
2023-02-11T04:18:51.305Z,59.48
2023-02-11T04:21:55.177Z,60.03
2023-02-11T04:24:57.768Z,59.69
2023-02-11T04:28:00.320Z,60.12
2023-02-11T04:31:02.896Z,59.99
2023-02-11T04:34:05.484Z,60.07
2023-02-11T04:37:09.472Z,59.84
2023-02-11T04:40:12.454Z,59.62
2023-02-11T04:43:15.017Z,59.76
2023-02-11T04:46:17.586Z,59.78
2023-02-11T04:49:20.107Z,60.13
2023-02-11T04:52:24.049Z,59.83
2023-02-11T04:55:26.637Z,59.77
2023-02-11T04:58:29.163Z,60.07
2023-02-11T05:01:31.816Z,59.63
2023-02-11T05:04:34.479Z,60.06
2023-02-11T05:07:38.424Z,60.21
2023-02-11T05:10:40.953Z,59.84
2023-02-11T05:13:43.512Z,60.11
2023-02-11T05:16:46.123Z,59.96
2023-02-11T05:19:48.735Z,59.76
2023-02-11T05:22:52.636Z,60.09
2023-02-11T05:25:55.222Z,59.80
2023-02-11T05:28:57.755Z,59.97
2023-02-11T05:32:00.387Z,59.79
2023-02-11T05:35:02.930Z,59.93
2023-02-11T05:38:06.849Z,60.32
2023-02-11T05:41:09.442Z,60.01
2023-02-11T05:44:12.030Z,59.86
2023-02-11T05:47:14.593Z,59.79
2023-02-11T05:50:17.152Z,59.75
2023-02-11T05:53:21.068Z,60.26
2023-02-11T05:56:23.714Z,59.95
2023-02-11T05:59:26.264Z,60.16
2023-02-11T06:02:28.884Z,59.93
2023-02-11T06:05:31.445Z,60.21
2023-02-11T06:08:37.023Z,60.18
2023-02-11T06:11:41.441Z,60.00
2023-02-11T06:14:44.010Z,60.35
2023-02-11T06:17:46.585Z,60.13
2023-02-11T06:20:49.179Z,60.19
2023-02-11T06:23:53.110Z,60.27
2023-02-11T06:26:55.642Z,60.25
2023-02-11T06:29:58.207Z,60.02
2023-02-11T06:33:00.782Z,60.24
2023-02-11T06:36:03.378Z,60.29
2023-02-11T06:39:07.324Z,59.93
2023-02-11T06:42:10.449Z,60.41
2023-02-11T06:45:13.222Z,59.88
2023-02-11T06:48:15.870Z,60.10
2023-02-11T06:51:18.455Z,59.87
2023-02-11T06:54:22.336Z,60.02
2023-02-11T06:57:24.848Z,60.10
2023-02-11T07:00:28.976Z,59.88
2023-02-11T07:03:31.549Z,59.91
2023-02-11T07:06:34.092Z,60.14
2023-02-11T07:09:37.956Z,60.00
2023-02-11T07:12:40.530Z,60.32
2023-02-11T07:15:43.107Z,60.35
2023-02-11T07:18:45.821Z,60.24
2023-02-11T07:21:48.777Z,60.33
2023-02-11T07:24:52.764Z,60.39
2023-02-11T07:28:36.613Z,60.37
2023-02-11T07:31:39.338Z,59.91
2023-02-11T07:34:42.068Z,60.42
2023-02-11T07:37:44.704Z,60.12
2023-02-11T07:40:47.280Z,60.18
2023-02-11T07:43:51.145Z,60.26
2023-02-11T07:46:53.841Z,60.25
2023-02-11T07:49:56.814Z,60.63
2023-02-11T07:52:59.384Z,60.49
2023-02-11T07:56:01.979Z,60.08
2023-02-11T07:59:05.895Z,60.28
2023-02-11T08:02:09.886Z,60.68
2023-02-11T08:05:12.478Z,60.48
2023-02-11T08:08:15.002Z,60.29
2023-02-11T08:11:18.523Z,60.43
2023-02-11T08:14:22.488Z,60.40
2023-02-11T08:17:25.072Z,60.54
2023-02-11T08:20:27.692Z,60.38
2023-02-11T08:23:30.289Z,60.60
2023-02-11T08:26:34.656Z,60.11
2023-02-11T08:29:38.610Z,60.25
2023-02-11T08:32:41.141Z,60.47
2023-02-11T08:35:43.692Z,60.44
2023-02-11T08:38:46.342Z,60.18
2023-02-11T08:41:49.621Z,59.93
2023-02-11T08:44:53.551Z,60.01
2023-02-11T08:47:56.080Z,60.43
2023-02-11T08:50:58.697Z,60.25
2023-02-11T08:54:01.377Z,60.13
2023-02-11T08:57:04.032Z,60.47
2023-02-11T09:00:11.065Z,60.32
2023-02-11T09:03:13.709Z,60.50
2023-02-11T09:06:17.596Z,60.24
2023-02-11T09:09:20.231Z,60.10
2023-02-11T09:12:22.810Z,60.46
2023-02-11T09:15:26.753Z,60.21
2023-02-11T09:18:29.360Z,60.07
2023-02-11T09:21:31.953Z,60.30
2023-02-11T09:24:34.534Z,60.08
2023-02-11T09:27:37.060Z,60.12
2023-02-11T09:30:40.970Z,60.17
2023-02-11T09:33:47.729Z,60.66
2023-02-11T09:36:50.327Z,60.61
2023-02-11T09:39:52.913Z,60.28
2023-02-11T09:43:02.338Z,60.48
2023-02-11T09:46:07.965Z,60.47
2023-02-11T09:49:13.072Z,60.58
2023-02-11T09:52:20.060Z,60.65
2023-02-11T09:55:23.765Z,60.66
2023-02-11T09:58:27.572Z,60.75
2023-02-11T10:01:32.436Z,60.27
2023-02-11T10:04:45.033Z,60.89
2023-02-11T10:07:51.939Z,60.84
2023-02-11T10:10:56.215Z,60.45
2023-02-11T10:14:02.907Z,60.79
2023-02-11T10:17:10.735Z,60.59
2023-02-11T10:20:22.367Z,60.76
2023-02-11T10:23:25.903Z,60.70
2023-02-11T10:26:29.079Z,60.52
2023-02-11T10:29:36.046Z,60.69
2023-02-11T10:32:42.580Z,60.66
2023-02-11T10:35:45.701Z,60.83
2023-02-11T10:38:48.271Z,60.36
2023-02-11T10:41:52.287Z,60.79
2023-02-11T10:44:58.701Z,60.42
2023-02-11T10:48:02.723Z,60.65
2023-02-11T10:51:09.451Z,60.71
2023-02-11T10:54:14.365Z,60.20
2023-02-11T10:57:19.323Z,60.26
2023-02-11T11:00:34.017Z,60.49
2023-02-11T11:03:39.985Z,60.63
2023-02-11T11:06:42.530Z,60.75
2023-02-11T11:09:49.422Z,60.43
2023-02-11T11:12:52.104Z,60.42
2023-02-11T11:16:18.681Z,60.69
2023-02-11T11:19:23.517Z,60.58
2023-02-11T11:22:26.117Z,60.17
2023-02-11T11:25:29.604Z,60.44
2023-02-11T11:28:35.657Z,60.22
2023-02-11T11:31:47.358Z,60.74
2023-02-11T11:34:52.376Z,60.49
2023-02-11T11:37:55.377Z,60.26
2023-02-11T11:41:21.086Z,60.47
2023-02-11T11:44:28.994Z,60.39
2023-02-11T11:47:37.144Z,60.62
2023-02-11T11:50:43.236Z,60.49
2023-02-11T11:53:47.188Z,60.58
2023-02-11T11:56:52.462Z,60.31
2023-02-11T11:59:54.996Z,60.70
2023-02-11T12:03:18.555Z,60.44
2023-02-11T12:06:27.733Z,60.66
2023-02-11T12:09:33.457Z,60.38
2023-02-11T12:12:41.035Z,60.38
2023-02-11T12:15:47.973Z,60.23
2023-02-11T12:19:28.454Z,60.37
2023-02-11T12:22:37.312Z,60.45
2023-02-11T12:25:42.641Z,60.70
2023-02-11T12:29:01.609Z,60.14
2023-02-11T12:32:14.250Z,60.63
2023-02-11T12:35:32.522Z,60.05
2023-02-11T12:38:47.832Z,60.03
2023-02-11T12:42:19.053Z,59.80
2023-02-11T12:45:31.293Z,59.96
2023-02-11T12:48:41.527Z,59.73
2023-02-11T12:51:53.776Z,60.18
2023-02-11T12:54:59.420Z,60.22
2023-02-11T12:58:02.025Z,60.14
2023-02-11T13:01:07.008Z,60.10
2023-02-11T13:04:12.170Z,59.98
2023-02-11T13:07:18.560Z,59.82
2023-02-11T13:10:28.918Z,59.82
2023-02-11T13:13:32.902Z,59.64
2023-02-11T13:16:37.573Z,59.99
2023-02-11T13:19:42.472Z,59.63
2023-02-11T13:22:45.606Z,59.45
2023-02-11T13:25:51.749Z,59.58
2023-02-11T13:28:55.612Z,59.96
2023-02-11T13:32:07.149Z,59.58
2023-02-11T13:35:27.681Z,59.79
2023-02-11T13:38:30.756Z,59.57
2023-02-11T13:41:36.657Z,59.68
2023-02-11T13:44:39.235Z,59.76
2023-02-11T13:47:41.826Z,59.59
2023-02-11T13:50:47.736Z,59.90
2023-02-11T13:53:51.347Z,59.81
2023-02-11T13:57:30.549Z,59.61
2023-02-11T14:00:49.011Z,59.63
2023-02-11T14:04:24.749Z,60.02
2023-02-11T14:07:46.033Z,59.93
2023-02-11T14:10:52.489Z,60.04
2023-02-11T14:14:15.972Z,59.64
2023-02-11T14:17:19.708Z,60.19
2023-02-11T14:20:45.248Z,59.79
2023-02-11T14:23:47.835Z,60.25
2023-02-11T14:26:50.999Z,59.93
2023-02-11T14:30:06.425Z,59.78
2023-02-11T14:33:24.858Z,59.96
2023-02-11T14:36:51.768Z,59.92
2023-02-11T14:39:59.803Z,60.09
2023-02-11T14:43:05.698Z,59.92
2023-02-11T14:46:09.824Z,59.83
2023-02-11T14:49:14.594Z,60.09
2023-02-11T14:52:27.634Z,60.28
2023-02-11T14:55:31.975Z,60.09
2023-02-11T14:58:34.797Z,60.21
2023-02-11T15:01:41.842Z,60.08
2023-02-11T15:04:44.201Z,60.30
2023-02-11T15:07:48.988Z,60.50
2023-02-11T15:10:51.771Z,60.18
2023-02-11T15:13:55.702Z,60.00
2023-02-11T15:17:00.491Z,60.31
2023-02-11T15:20:03.081Z,60.24
2023-02-11T15:23:08.114Z,60.10
2023-02-11T15:26:14.296Z,60.15
2023-02-11T15:29:17.156Z,60.36
2023-02-11T15:32:22.224Z,60.49
2023-02-11T15:35:25.000Z,60.55
2023-02-11T15:38:27.606Z,60.25
2023-02-11T15:41:37.594Z,60.06
2023-02-11T15:44:41.325Z,60.16
2023-02-11T15:47:49.338Z,60.44
2023-02-11T15:50:53.555Z,60.60
2023-02-11T15:53:58.444Z,60.24
2023-02-11T15:57:02.566Z,60.28
2023-02-11T16:00:07.344Z,60.25
2023-02-11T16:03:20.836Z,60.22
2023-02-11T16:06:24.889Z,60.08
2023-02-11T16:09:33.409Z,60.16
2023-02-11T16:12:36.077Z,60.15
2023-02-11T16:15:44.418Z,60.35
2023-02-11T16:19:03.435Z,60.44
2023-02-11T16:22:09.546Z,60.65
2023-02-11T16:25:19.111Z,60.38
2023-02-11T16:28:21.706Z,60.23
2023-02-11T16:31:24.417Z,60.65
2023-02-11T16:34:29.149Z,60.41
2023-02-11T16:37:32.272Z,60.50
2023-02-11T16:40:34.940Z,60.15
2023-02-11T16:43:37.718Z,60.15
2023-02-11T16:46:40.368Z,60.37
2023-02-11T16:49:44.328Z,60.23
2023-02-11T16:52:47.232Z,60.90
2023-02-11T16:55:49.877Z,60.17
2023-02-11T16:58:52.412Z,60.28
2023-02-11T17:01:54.977Z,60.53
2023-02-11T17:04:59.545Z,60.77
2023-02-11T17:08:03.564Z,60.72
2023-02-11T17:11:06.352Z,60.57
2023-02-11T17:14:08.921Z,60.34
2023-02-11T17:17:11.628Z,60.48
2023-02-11T17:20:16.836Z,60.54
2023-02-11T17:23:19.377Z,60.51
2023-02-11T17:26:21.957Z,60.40
2023-02-11T17:29:25.471Z,60.31
2023-02-11T17:32:28.001Z,60.63
2023-02-11T17:35:31.979Z,60.83
2023-02-11T17:38:34.603Z,60.55
2023-02-11T17:41:37.468Z,60.98
2023-02-11T17:44:39.989Z,60.59
2023-02-11T17:47:42.508Z,60.90
2023-02-11T17:50:46.376Z,60.87
2023-02-11T17:53:48.940Z,60.72
2023-02-11T17:56:55.729Z,60.75
2023-02-11T17:59:59.675Z,60.35
2023-02-11T18:03:02.883Z,60.90
2023-02-11T18:06:07.922Z,60.94
2023-02-11T18:09:10.483Z,60.68
2023-02-11T18:12:13.033Z,60.95
2023-02-11T18:15:15.743Z,60.80
2023-02-11T18:18:18.300Z,60.73
2023-02-11T18:21:22.855Z,60.87
2023-02-11T18:24:25.371Z,60.59
2023-02-11T18:27:27.985Z,60.96
2023-02-11T18:30:31.109Z,61.07
2023-02-11T18:33:33.796Z,61.04
2023-02-11T18:36:37.792Z,60.49
2023-02-11T18:39:40.333Z,60.80
2023-02-11T18:42:42.906Z,60.69
2023-02-11T18:45:45.518Z,60.93
2023-02-11T18:48:49.240Z,60.98
2023-02-11T18:51:53.104Z,60.50
2023-02-11T18:54:55.638Z,60.90
2023-02-11T18:57:58.221Z,60.85
2023-02-11T19:01:00.774Z,60.64
2023-02-11T19:04:05.167Z,60.59
2023-02-11T19:07:09.241Z,60.62
2023-02-11T19:10:13.012Z,60.62
2023-02-11T19:13:15.527Z,61.00
2023-02-11T19:16:19.777Z,60.88
2023-02-11T19:19:23.143Z,60.59
2023-02-11T19:22:27.092Z,60.60
2023-02-11T19:25:29.691Z,61.12
2023-02-11T19:28:32.337Z,60.59
2023-02-11T19:31:35.117Z,60.67
2023-02-11T19:34:41.158Z,61.18
2023-02-11T19:37:45.586Z,60.76
2023-02-11T19:40:48.100Z,60.95
2023-02-11T19:43:52.762Z,60.92
2023-02-11T19:46:55.354Z,60.96
2023-02-11T19:49:57.968Z,60.94
2023-02-11T19:53:02.991Z,60.81
2023-02-11T19:56:07.521Z,60.85
2023-02-11T19:59:10.045Z,60.78
2023-02-11T20:02:12.725Z,61.16
2023-02-11T20:05:15.361Z,60.94
2023-02-11T20:08:19.237Z,61.01
2023-02-11T20:11:21.891Z,60.83
2023-02-11T20:14:27.511Z,60.83
2023-02-11T20:17:30.405Z,61.19
2023-02-11T20:20:32.977Z,61.14
2023-02-11T20:23:38.112Z,61.06
2023-02-11T20:26:42.291Z,60.86
2023-02-11T20:29:44.840Z,61.23
2023-02-11T20:32:47.368Z,61.44
2023-02-11T20:35:55.677Z,61.40
2023-02-11T20:38:59.861Z,61.10
2023-02-11T20:42:02.448Z,61.23
2023-02-11T20:45:05.353Z,60.98
2023-02-11T20:48:07.927Z,60.95
2023-02-11T20:51:11.952Z,61.07
2023-02-11T20:54:17.089Z,60.75
2023-02-11T20:57:19.650Z,60.89
2023-02-11T21:00:22.886Z,60.91
2023-02-11T21:03:25.556Z,61.27
2023-02-11T21:06:28.791Z,61.32
2023-02-11T21:09:33.513Z,61.36
2023-02-11T21:12:36.085Z,61.08
2023-02-11T21:15:38.662Z,61.15
2023-02-11T21:18:41.406Z,61.07
2023-02-11T21:21:43.984Z,61.09
2023-02-11T21:24:47.896Z,61.38
2023-02-11T21:27:50.484Z,61.01
2023-02-11T21:30:53.135Z,61.28
2023-02-11T21:33:55.905Z,60.95
2023-02-11T21:36:58.483Z,61.10
2023-02-11T21:40:02.432Z,61.02
2023-02-11T21:43:05.618Z,60.97
2023-02-11T21:46:09.108Z,61.48
2023-02-11T21:49:11.644Z,61.51
2023-02-11T21:52:14.199Z,61.08
2023-02-11T21:55:18.169Z,61.41
2023-02-11T22:01:35.119Z,61.49
2023-02-11T22:04:37.927Z,61.25
2023-02-11T22:07:40.516Z,61.56
2023-02-11T22:10:43.106Z,61.22
2023-02-11T22:13:45.888Z,61.60
2023-02-11T22:16:49.872Z,61.98
2023-02-11T22:19:52.510Z,62.53
2023-02-11T22:22:55.142Z,62.65
2023-02-11T22:25:57.816Z,62.85
2023-02-11T22:29:00.418Z,63.18
2023-02-11T22:32:04.565Z,63.41
2023-02-11T22:35:07.577Z,63.88
2023-02-11T22:38:10.154Z,64.04
2023-02-11T22:41:12.916Z,64.09
2023-02-11T22:44:16.276Z,64.14
2023-02-11T22:47:20.193Z,64.28
2023-02-11T22:50:22.820Z,64.49
2023-02-11T22:53:25.970Z,64.68
2023-02-11T22:56:28.672Z,64.72
2023-02-11T22:59:31.227Z,64.65
2023-02-11T23:02:35.369Z,65.04
2023-02-11T23:05:38.989Z,65.33
2023-02-11T23:08:42.843Z,65.16
2023-02-11T23:11:45.402Z,65.30
2023-02-11T23:14:48.016Z,65.14
2023-02-11T23:17:51.950Z,65.31
2023-02-11T23:20:54.485Z,65.38
2023-02-11T23:23:57.640Z,65.57
2023-02-11T23:27:00.189Z,65.76
2023-02-11T23:30:03.179Z,65.64
2023-02-11T23:33:07.155Z,65.74
2023-02-11T23:36:10.152Z,65.85
2023-02-11T23:39:15.157Z,65.85
2023-02-11T23:42:17.753Z,65.95
2023-02-11T23:45:20.295Z,66.04
2023-02-11T23:48:24.249Z,66.21
2023-02-11T23:51:26.848Z,66.00
2023-02-11T23:54:29.479Z,66.29
2023-02-11T23:57:32.774Z,66.14
